createdAt,value
2017-06-18T00:00:10.681Z,18.7
2017-06-18T00:00:38.843Z,18.63
2017-06-18T00:01:06.871Z,18.67
2017-06-18T00:01:35.031Z,18.6
2017-06-18T00:02:03.162Z,18.61
2017-06-18T00:02:31.301Z,18.55
2017-06-18T00:02:59.455Z,18.53
2017-06-18T00:03:27.601Z,18.58
2017-06-18T00:03:55.665Z,18.57
2017-06-18T00:04:23.812Z,18.55
2017-06-18T00:04:51.859Z,18.55
2017-06-18T00:05:19.889Z,18.55
2017-06-18T00:05:48.045Z,18.49
2017-06-18T00:06:16.164Z,18.46
2017-06-18T00:06:44.199Z,18.55
2017-06-18T00:07:12.154Z,18.57
2017-06-18T00:07:40.220Z,18.49
2017-06-18T00:08:08.365Z,18.51
2017-06-18T00:08:36.495Z,18.52
2017-06-18T00:09:04.654Z,18.51
2017-06-18T00:09:32.812Z,18.58
2017-06-18T00:10:00.961Z,18.53
2017-06-18T00:10:28.809Z,18.53
2017-06-18T00:10:56.872Z,18.51
2017-06-18T00:11:25.030Z,18.55
2017-06-18T00:11:53.073Z,18.52
2017-06-18T00:12:21.205Z,18.58
2017-06-18T00:12:49.344Z,18.49
2017-06-18T00:13:17.463Z,18.51
2017-06-18T00:13:45.489Z,18.52
2017-06-18T00:14:13.512Z,18.51
2017-06-18T00:14:41.636Z,18.45
2017-06-18T00:15:09.778Z,18.53
2017-06-18T00:15:37.908Z,18.51
2017-06-18T00:16:06.041Z,18.55
2017-06-18T00:16:34.071Z,18.53
2017-06-18T00:17:02.198Z,18.52
2017-06-18T00:17:30.315Z,18.51
2017-06-18T00:17:58.385Z,18.58
2017-06-18T00:18:26.525Z,18.52
2017-06-18T00:18:54.559Z,18.52
2017-06-18T00:19:22.670Z,18.51
2017-06-18T00:19:50.825Z,18.55
2017-06-18T00:20:18.843Z,18.52
2017-06-18T00:20:46.974Z,18.53
2017-06-18T00:21:15.091Z,18.46
2017-06-18T00:21:43.159Z,18.51
2017-06-18T00:22:11.104Z,18.51
2017-06-18T00:22:39.226Z,18.46
2017-06-18T00:23:07.356Z,18.43
2017-06-18T00:23:35.420Z,18.45
2017-06-18T00:24:03.486Z,18.42
2017-06-18T00:24:31.622Z,18.45
2017-06-18T00:24:59.679Z,18.41
2017-06-18T00:25:27.834Z,18.41
2017-06-18T00:25:55.922Z,18.39
2017-06-18T00:26:24.061Z,18.37
2017-06-18T00:26:52.190Z,18.33
2017-06-18T00:27:20.240Z,18.39
2017-06-18T00:27:48.269Z,18.43
2017-06-18T00:28:16.300Z,18.43
2017-06-18T00:28:44.452Z,18.36
2017-06-18T00:29:12.505Z,18.43
2017-06-18T00:29:40.556Z,18.39
2017-06-18T00:30:08.711Z,18.37
2017-06-18T00:30:36.843Z,18.31
2017-06-18T00:31:04.976Z,18.37
2017-06-18T00:31:33.115Z,18.3
2017-06-18T00:32:01.274Z,18.33
2017-06-18T00:32:29.236Z,18.39
2017-06-18T00:32:57.366Z,18.34
2017-06-18T00:33:25.508Z,18.37
2017-06-18T00:33:53.676Z,18.24
2017-06-18T00:34:21.717Z,18.21
2017-06-18T00:34:49.859Z,18.23
2017-06-18T00:35:17.772Z,18.21
2017-06-18T00:35:45.825Z,18.24
2017-06-18T00:36:13.980Z,18.26
2017-06-18T00:36:42.001Z,18.16
2017-06-18T00:37:10.065Z,18.15
2017-06-18T00:37:38.201Z,18.08
2017-06-18T00:38:06.320Z,18.16
2017-06-18T00:38:34.278Z,18.08
2017-06-18T00:39:02.390Z,18.06
2017-06-18T00:39:30.518Z,18.09
2017-06-18T00:39:58.653Z,17.97
2017-06-18T00:40:26.802Z,17.97
2017-06-18T00:40:54.940Z,17.98
2017-06-18T00:41:22.889Z,17.95
2017-06-18T00:41:51.028Z,17.91
2017-06-18T00:42:18.954Z,17.95
2017-06-18T00:42:47.106Z,17.93
2017-06-18T00:43:15.148Z,17.91
2017-06-18T00:43:43.291Z,18.05
2017-06-18T00:44:11.324Z,17.95
2017-06-18T00:44:39.436Z,17.91
2017-06-18T00:45:07.584Z,17.94
2017-06-18T00:45:35.607Z,17.95
2017-06-18T00:46:03.725Z,18
2017-06-18T00:46:31.700Z,17.94
2017-06-18T00:46:59.854Z,18
2017-06-18T00:47:27.908Z,18
2017-06-18T00:47:56.083Z,17.93
2017-06-18T00:48:24.133Z,17.97
2017-06-18T00:48:52.244Z,17.94
2017-06-18T00:49:20.386Z,18.02
2017-06-18T00:49:48.510Z,18
2017-06-18T00:50:16.639Z,18.03
2017-06-18T00:50:44.679Z,18.05
2017-06-18T00:51:12.844Z,17.93
2017-06-18T00:51:40.877Z,18.02
2017-06-18T00:52:08.918Z,18
2017-06-18T00:52:36.876Z,17.98
2017-06-18T00:53:04.919Z,17.94
2017-06-18T00:53:32.869Z,17.95
2017-06-18T00:54:01.012Z,17.91
2017-06-18T00:54:29.166Z,17.95
2017-06-18T00:54:57.292Z,17.93
2017-06-18T00:55:25.336Z,17.91
2017-06-18T00:55:53.389Z,17.97
2017-06-18T00:56:21.528Z,17.9
2017-06-18T00:56:49.553Z,17.86
2017-06-18T00:57:17.691Z,17.8
2017-06-18T00:57:45.847Z,17.8
2017-06-18T00:58:13.759Z,17.79
2017-06-18T00:58:41.873Z,17.75
2017-06-18T00:59:10.029Z,17.79
2017-06-18T00:59:38.166Z,17.8
2017-06-18T01:00:06.318Z,17.8
2017-06-18T01:00:34.372Z,17.82
2017-06-18T01:01:02.540Z,17.8
2017-06-18T01:01:30.689Z,17.84
2017-06-18T01:01:58.817Z,17.87
2017-06-18T01:02:26.856Z,17.79
2017-06-18T01:02:54.910Z,17.8
2017-06-18T01:03:22.929Z,17.78
2017-06-18T01:03:50.986Z,17.84
2017-06-18T01:04:18.821Z,17.78
2017-06-18T01:04:46.787Z,17.82
2017-06-18T01:05:14.810Z,17.78
2017-06-18T01:05:42.970Z,17.82
2017-06-18T01:06:11.109Z,17.79
2017-06-18T01:06:39.246Z,17.73
2017-06-18T01:07:07.292Z,17.8
2017-06-18T01:07:35.439Z,17.84
2017-06-18T01:08:03.601Z,17.78
2017-06-18T01:08:31.725Z,17.86
2017-06-18T01:08:59.872Z,17.79
2017-06-18T01:09:27.986Z,17.9
2017-06-18T01:09:56.013Z,17.84
2017-06-18T01:10:24.060Z,17.88
2017-06-18T01:10:52.118Z,17.86
2017-06-18T01:11:20.155Z,17.82
2017-06-18T01:11:48.196Z,17.73
2017-06-18T01:12:16.347Z,17.71
2017-06-18T01:12:44.481Z,17.73
2017-06-18T01:13:12.421Z,17.69
2017-06-18T01:13:40.462Z,17.71
2017-06-18T01:14:08.496Z,17.68
2017-06-18T01:14:36.610Z,17.57
2017-06-18T01:15:04.747Z,17.59
2017-06-18T01:15:32.763Z,17.56
2017-06-18T01:16:00.797Z,17.56
2017-06-18T01:16:28.927Z,17.56
2017-06-18T01:16:57.086Z,17.6
2017-06-18T01:17:25.144Z,17.65
2017-06-18T01:17:53.180Z,17.65
2017-06-18T01:18:21.322Z,17.63
2017-06-18T01:18:49.445Z,17.59
2017-06-18T01:19:17.492Z,17.56
2017-06-18T01:19:45.547Z,17.54
2017-06-18T01:20:13.687Z,17.41
2017-06-18T01:20:41.741Z,17.41
2017-06-18T01:21:09.815Z,17.41
2017-06-18T01:21:37.830Z,17.53
2017-06-18T01:22:05.951Z,17.41
2017-06-18T01:22:34.077Z,17.44
2017-06-18T01:23:02.189Z,17.52
2017-06-18T01:23:30.343Z,17.42
2017-06-18T01:23:58.466Z,17.42
2017-06-18T01:24:26.680Z,17.38
2017-06-18T01:24:54.806Z,17.47
2017-06-18T01:25:22.865Z,17.35
2017-06-18T01:25:51.015Z,17.38
2017-06-18T01:26:19.148Z,17.39
2017-06-18T01:26:47.237Z,17.35
2017-06-18T01:27:15.364Z,17.39
2017-06-18T01:27:43.511Z,17.39
2017-06-18T01:28:11.639Z,17.41
2017-06-18T01:28:39.789Z,17.46
2017-06-18T01:29:07.918Z,17.44
2017-06-18T01:29:36.078Z,17.47
2017-06-18T01:30:04.218Z,17.41
2017-06-18T01:30:32.382Z,17.44
2017-06-18T01:31:00.673Z,17.46
2017-06-18T01:31:29.284Z,17.47
2017-06-18T01:31:57.879Z,17.5
2017-06-18T01:32:26.298Z,17.47
2017-06-18T01:32:54.800Z,17.49
2017-06-18T01:33:23.335Z,17.46
2017-06-18T01:33:51.935Z,17.44
2017-06-18T01:34:20.433Z,17.47
2017-06-18T01:34:49.051Z,17.49
2017-06-18T01:35:17.573Z,17.5
2017-06-18T01:35:46.197Z,17.5
2017-06-18T01:36:14.728Z,17.5
2017-06-18T01:36:43.346Z,17.46
2017-06-18T01:37:11.855Z,17.39
2017-06-18T01:37:40.424Z,17.47
2017-06-18T01:38:08.993Z,17.47
2017-06-18T01:38:37.521Z,17.53
2017-06-18T01:39:06.019Z,17.53
2017-06-18T01:39:34.609Z,17.49
2017-06-18T01:40:03.133Z,17.5
2017-06-18T01:40:31.741Z,17.44
2017-06-18T01:41:00.356Z,17.47
2017-06-18T01:41:28.930Z,17.47
2017-06-18T01:41:57.526Z,17.41
2017-06-18T01:42:26.115Z,17.41
2017-06-18T01:42:54.861Z,17.44
2017-06-18T01:43:23.383Z,17.44
2017-06-18T01:43:51.985Z,17.39
2017-06-18T01:44:20.612Z,17.42
2017-06-18T01:44:49.205Z,17.42
2017-06-18T01:45:17.728Z,17.38
2017-06-18T01:45:46.340Z,17.39
2017-06-18T01:46:14.830Z,17.34
2017-06-18T01:46:43.416Z,17.35
2017-06-18T01:47:11.929Z,17.37
2017-06-18T01:47:40.553Z,17.3
2017-06-18T01:48:09.163Z,17.31
2017-06-18T01:48:37.676Z,17.37
2017-06-18T01:49:06.281Z,17.37
2017-06-18T01:49:34.882Z,17.34
2017-06-18T01:50:03.484Z,17.28
2017-06-18T01:50:32.025Z,17.24
2017-06-18T01:51:00.535Z,17.22
2017-06-18T01:51:29.035Z,17.2
2017-06-18T01:51:57.641Z,17.24
2017-06-18T01:52:26.161Z,17.23
2017-06-18T01:52:54.774Z,17.2
2017-06-18T01:53:23.319Z,17.17
2017-06-18T01:53:51.846Z,17.24
2017-06-18T01:54:20.444Z,17.2
2017-06-18T01:54:49.048Z,17.14
2017-06-18T01:55:17.566Z,17.17
2017-06-18T01:55:46.173Z,17.12
2017-06-18T01:56:14.799Z,17.04
2017-06-18T01:56:43.388Z,17.17
2017-06-18T01:57:11.915Z,17.13
2017-06-18T01:57:40.411Z,17.16
2017-06-18T01:58:08.922Z,17.13
2017-06-18T01:58:37.429Z,17.05
2017-06-18T01:59:05.958Z,17.05
2017-06-18T01:59:34.414Z,17.13
2017-06-18T02:00:03.042Z,17.1
2017-06-18T02:00:31.664Z,16.98
2017-06-18T02:01:00.188Z,17.05
2017-06-18T02:01:28.685Z,17.07
2017-06-18T02:01:57.294Z,17.09
2017-06-18T02:02:25.912Z,17.04
2017-06-18T02:02:54.422Z,17.1
2017-06-18T02:03:23.036Z,17.05
2017-06-18T02:03:51.544Z,16.99
2017-06-18T02:04:20.050Z,17.1
2017-06-18T02:04:48.548Z,17.1
2017-06-18T02:05:17.140Z,16.99
2017-06-18T02:05:45.729Z,17.02
2017-06-18T02:06:14.244Z,17.04
2017-06-18T02:06:42.748Z,17.02
2017-06-18T02:07:11.265Z,17.01
2017-06-18T02:07:39.873Z,17.02
2017-06-18T02:08:08.495Z,17.04
2017-06-18T02:08:37.114Z,17.13
2017-06-18T02:09:05.719Z,16.99
2017-06-18T02:09:34.331Z,17.05
2017-06-18T02:10:02.882Z,17.09
2017-06-18T02:10:31.295Z,17.02
2017-06-18T02:10:59.916Z,16.99
2017-06-18T02:11:28.532Z,17.02
2017-06-18T02:11:57.144Z,17.05
2017-06-18T02:12:25.755Z,17.04
2017-06-18T02:12:54.358Z,17.05
2017-06-18T02:13:22.890Z,17.04
2017-06-18T02:13:51.382Z,16.99
2017-06-18T02:14:19.884Z,16.97
2017-06-18T02:14:48.496Z,17.02
2017-06-18T02:15:17.100Z,17.01
2017-06-18T02:15:45.697Z,17.01
2017-06-18T02:16:14.322Z,16.98
2017-06-18T02:16:42.943Z,17.04
2017-06-18T02:17:11.403Z,16.99
2017-06-18T02:17:40.024Z,16.97
2017-06-18T02:18:08.540Z,16.97
2017-06-18T02:18:37.086Z,16.98
2017-06-18T02:19:05.692Z,17.01
2017-06-18T02:19:34.208Z,16.97
2017-06-18T02:20:02.803Z,16.97
2017-06-18T02:20:31.414Z,17.01
2017-06-18T02:20:59.915Z,16.97
2017-06-18T02:21:28.352Z,16.97
2017-06-18T02:21:57.001Z,16.91
2017-06-18T02:22:25.609Z,16.94
2017-06-18T02:22:54.123Z,16.92
2017-06-18T02:23:22.727Z,16.87
2017-06-18T02:23:51.357Z,16.97
2017-06-18T02:24:19.944Z,16.86
2017-06-18T02:24:48.541Z,16.92
2017-06-18T02:25:17.062Z,16.94
2017-06-18T02:25:45.644Z,16.92
2017-06-18T02:26:14.259Z,16.89
2017-06-18T02:26:42.851Z,16.89
2017-06-18T02:27:11.464Z,16.86
2017-06-18T02:27:40.091Z,16.89
2017-06-18T02:28:08.678Z,16.97
2017-06-18T02:28:37.205Z,16.87
2017-06-18T02:29:05.815Z,16.86
2017-06-18T02:29:34.392Z,16.89
2017-06-18T02:30:02.988Z,16.92
2017-06-18T02:30:31.583Z,16.87
2017-06-18T02:31:00.169Z,16.92
2017-06-18T02:31:28.764Z,16.92
2017-06-18T02:31:57.406Z,16.87
2017-06-18T02:32:25.892Z,16.84
2017-06-18T02:32:54.517Z,16.84
2017-06-18T02:33:23.124Z,16.91
2017-06-18T02:33:51.737Z,16.86
2017-06-18T02:34:20.247Z,16.84
2017-06-18T02:34:48.776Z,16.86
2017-06-18T02:35:17.379Z,16.84
2017-06-18T02:35:46.346Z,16.89
2017-06-18T02:36:14.760Z,16.89
2017-06-18T02:36:43.281Z,16.87
2017-06-18T02:37:11.899Z,16.92
2017-06-18T02:37:40.499Z,16.87
2017-06-18T02:38:09.109Z,16.86
2017-06-18T02:38:37.722Z,16.86
2017-06-18T02:39:06.211Z,16.82
2017-06-18T02:39:34.821Z,16.86
2017-06-18T02:40:03.435Z,16.8
2017-06-18T02:40:31.965Z,16.84
2017-06-18T02:41:00.481Z,16.8
2017-06-18T02:41:29.069Z,16.83
2017-06-18T02:41:57.691Z,16.76
2017-06-18T02:42:26.316Z,16.74
2017-06-18T02:42:54.810Z,16.83
2017-06-18T02:43:23.306Z,16.77
2017-06-18T02:43:51.934Z,16.82
2017-06-18T02:44:20.537Z,16.77
2017-06-18T02:44:49.154Z,16.74
2017-06-18T02:45:17.646Z,16.8
2017-06-18T02:45:46.158Z,16.79
2017-06-18T02:46:14.870Z,16.77
2017-06-18T02:47:02.476Z,16.83
2017-06-18T02:47:30.487Z,16.86
2017-06-18T02:47:58.552Z,16.69
2017-06-18T02:48:26.613Z,16.76
2017-06-18T02:48:54.732Z,16.73
2017-06-18T02:49:22.779Z,16.74
2017-06-18T02:49:50.841Z,16.72
2017-06-18T02:50:18.693Z,16.72
2017-06-18T02:50:46.748Z,16.73
2017-06-18T02:51:14.796Z,16.72
2017-06-18T02:51:43.165Z,16.66
2017-06-18T02:52:11.297Z,16.66
2017-06-18T02:52:39.409Z,16.62
2017-06-18T02:53:07.722Z,16.66
2017-06-18T02:53:35.857Z,16.66
2017-06-18T02:54:04.004Z,16.65
2017-06-18T02:54:32.031Z,16.59
2017-06-18T02:55:00.183Z,16.61
2017-06-18T02:55:28.257Z,16.55
2017-06-18T02:55:56.402Z,16.57
2017-06-18T02:56:24.522Z,16.57
2017-06-18T02:56:52.556Z,16.57
2017-06-18T02:57:20.608Z,16.61
2017-06-18T02:57:48.669Z,16.65
2017-06-18T02:58:16.615Z,16.62
2017-06-18T02:58:44.743Z,16.54
2017-06-18T02:59:12.714Z,16.49
2017-06-18T02:59:40.741Z,16.64
2017-06-18T03:00:08.797Z,16.51
2017-06-18T03:00:36.931Z,16.57
2017-06-18T03:01:05.062Z,16.59
2017-06-18T03:01:33.072Z,16.58
2017-06-18T03:02:01.136Z,16.57
2017-06-18T03:02:29.105Z,16.5
2017-06-18T03:02:57.244Z,16.5
2017-06-18T03:03:25.279Z,16.55
2017-06-18T03:03:53.438Z,16.49
2017-06-18T03:04:21.596Z,16.46
2017-06-18T03:04:49.724Z,16.43
2017-06-18T03:05:17.857Z,16.41
2017-06-18T03:05:46.009Z,16.43
2017-06-18T03:06:14.049Z,16.43
2017-06-18T03:06:42.167Z,16.47
2017-06-18T03:07:10.347Z,16.46
2017-06-18T03:07:38.394Z,16.51
2017-06-18T03:08:06.511Z,16.44
2017-06-18T03:08:34.538Z,16.44
2017-06-18T03:09:02.511Z,16.44
2017-06-18T03:09:30.562Z,16.43
2017-06-18T03:09:58.680Z,16.44
2017-06-18T03:10:26.735Z,16.41
2017-06-18T03:10:54.878Z,16.36
2017-06-18T03:11:23.037Z,16.36
2017-06-18T03:11:51.159Z,16.32
2017-06-18T03:12:19.304Z,16.29
2017-06-18T03:12:47.432Z,16.32
2017-06-18T03:13:15.460Z,16.34
2017-06-18T03:13:43.590Z,16.29
2017-06-18T03:14:11.742Z,16.31
2017-06-18T03:14:39.866Z,16.29
2017-06-18T03:15:07.983Z,16.32
2017-06-18T03:15:36.106Z,16.29
2017-06-18T03:16:04.257Z,16.29
2017-06-18T03:16:32.417Z,16.31
2017-06-18T03:17:00.461Z,16.24
2017-06-18T03:17:28.614Z,16.21
2017-06-18T03:17:56.681Z,16.26
2017-06-18T03:18:24.818Z,16.22
2017-06-18T03:18:52.953Z,16.25
2017-06-18T03:19:21.094Z,16.28
2017-06-18T03:19:49.244Z,16.21
2017-06-18T03:20:17.296Z,16.22
2017-06-18T03:20:45.801Z,16.24
2017-06-18T03:21:13.853Z,16.25
2017-06-18T03:21:41.994Z,16.28
2017-06-18T03:22:10.112Z,16.26
2017-06-18T03:22:38.275Z,16.26
2017-06-18T03:23:06.388Z,16.24
2017-06-18T03:23:34.519Z,16.24
2017-06-18T03:24:02.550Z,16.25
2017-06-18T03:24:30.690Z,16.22
2017-06-18T03:24:58.807Z,16.17
2017-06-18T03:25:26.940Z,16.28
2017-06-18T03:25:55.076Z,16.25
2017-06-18T03:26:23.046Z,16.21
2017-06-18T03:26:51.190Z,16.25
2017-06-18T03:27:19.223Z,16.28
2017-06-18T03:27:47.272Z,16.24
2017-06-18T03:28:15.400Z,16.24
2017-06-18T03:28:43.566Z,16.24
2017-06-18T03:29:11.705Z,16.25
2017-06-18T03:29:39.834Z,16.22
2017-06-18T03:30:07.797Z,16.28
2017-06-18T03:30:35.959Z,16.25
2017-06-18T03:31:04.108Z,16.31
2017-06-18T03:31:32.156Z,16.31
2017-06-18T03:32:00.258Z,16.21
2017-06-18T03:32:28.300Z,16.21
2017-06-18T03:32:56.433Z,16.25
2017-06-18T03:33:24.554Z,16.26
2017-06-18T03:33:52.587Z,16.25
2017-06-18T03:34:20.721Z,16.28
2017-06-18T03:34:48.831Z,16.26
2017-06-18T03:35:16.967Z,16.24
2017-06-18T03:35:44.972Z,16.24
2017-06-18T03:36:12.993Z,16.31
2017-06-18T03:36:41.126Z,16.26
2017-06-18T03:37:09.088Z,16.28
2017-06-18T03:37:37.173Z,16.22
2017-06-18T03:38:05.256Z,16.31
2017-06-18T03:38:33.372Z,16.25
2017-06-18T03:39:01.505Z,16.25
2017-06-18T03:39:29.611Z,16.24
2017-06-18T03:39:57.673Z,16.28
2017-06-18T03:40:25.695Z,16.28
2017-06-18T03:40:53.829Z,16.26
2017-06-18T03:41:22.154Z,16.21
2017-06-18T03:41:50.279Z,16.31
2017-06-18T03:42:18.208Z,16.25
2017-06-18T03:42:46.237Z,16.22
2017-06-18T03:43:14.189Z,16.29
2017-06-18T03:43:42.336Z,16.31
2017-06-18T03:44:10.386Z,16.13
2017-06-18T03:44:38.523Z,16.22
2017-06-18T03:45:06.657Z,16.24
2017-06-18T03:45:34.681Z,16.22
2017-06-18T03:46:02.829Z,16.21
2017-06-18T03:46:30.765Z,16.24
2017-06-18T03:46:58.906Z,16.25
2017-06-18T03:47:27.044Z,16.17
2017-06-18T03:47:55.182Z,16.26
2017-06-18T03:48:23.337Z,16.22
2017-06-18T03:48:51.469Z,16.16
2017-06-18T03:49:19.487Z,16.24
2017-06-18T03:49:47.629Z,16.18
2017-06-18T03:50:15.772Z,16.25
2017-06-18T03:50:43.830Z,16.22
2017-06-18T03:51:11.857Z,16.17
2017-06-18T03:51:39.993Z,16.21
2017-06-18T03:52:08.119Z,16.21
2017-06-18T03:52:36.254Z,16.22
2017-06-18T03:53:04.258Z,16.25
2017-06-18T03:53:32.368Z,16.22
2017-06-18T03:54:00.400Z,16.18
2017-06-18T03:54:28.562Z,16.16
2017-06-18T03:54:56.503Z,16.21
2017-06-18T03:55:24.537Z,16.18
2017-06-18T03:55:52.585Z,16.22
2017-06-18T03:56:20.703Z,16.26
2017-06-18T03:56:48.846Z,16.18
2017-06-18T03:57:16.981Z,16.21
2017-06-18T03:57:45.027Z,16.21
2017-06-18T03:58:13.065Z,16.08
2017-06-18T03:58:41.219Z,16.17
2017-06-18T03:59:09.383Z,16.1
2017-06-18T03:59:37.390Z,16.09
2017-06-18T04:00:05.531Z,16.18
2017-06-18T04:00:33.557Z,16.09
2017-06-18T04:01:02.275Z,16.13
2017-06-18T04:01:30.296Z,16.12
2017-06-18T04:01:58.365Z,16.12
2017-06-18T04:02:26.516Z,16.18
2017-06-18T04:02:54.537Z,16.18
2017-06-18T04:03:22.673Z,16.1
2017-06-18T04:03:50.722Z,16.16
2017-06-18T04:04:18.880Z,16.13
2017-06-18T04:04:46.908Z,16.08
2017-06-18T04:05:14.925Z,16.03
2017-06-18T04:05:43.034Z,16.08
2017-06-18T04:06:11.152Z,16.08
2017-06-18T04:06:39.206Z,16.06
2017-06-18T04:07:07.343Z,16.02
2017-06-18T04:07:35.525Z,16.08
2017-06-18T04:08:03.541Z,16.08
2017-06-18T04:08:31.594Z,16.03
2017-06-18T04:08:59.750Z,16
2017-06-18T04:09:27.902Z,16
2017-06-18T04:09:56.036Z,16.05
2017-06-18T04:10:24.189Z,16.02
2017-06-18T04:10:52.225Z,16
2017-06-18T04:11:20.272Z,15.99
2017-06-18T04:11:48.401Z,15.98
2017-06-18T04:12:16.529Z,15.9
2017-06-18T04:12:44.670Z,15.87
2017-06-18T04:13:12.810Z,15.94
2017-06-18T04:13:41.005Z,15.91
2017-06-18T04:14:13.493Z,15.83
2017-06-18T04:14:41.509Z,15.92
2017-06-18T04:15:09.654Z,16
2017-06-18T04:15:37.797Z,15.87
2017-06-18T04:16:05.915Z,15.84
2017-06-18T04:16:34.049Z,15.91
2017-06-18T04:17:02.049Z,15.91
2017-06-18T04:17:30.179Z,15.98
2017-06-18T04:17:58.319Z,15.91
2017-06-18T04:18:26.474Z,15.94
2017-06-18T04:18:54.609Z,15.83
2017-06-18T04:19:22.724Z,15.87
2017-06-18T04:19:50.872Z,15.75
2017-06-18T04:20:19.042Z,15.8
2017-06-18T04:20:47.172Z,15.78
2017-06-18T04:21:15.327Z,15.73
2017-06-18T04:21:43.397Z,15.75
2017-06-18T04:22:11.548Z,15.76
2017-06-18T04:22:39.608Z,15.75
2017-06-18T04:23:07.747Z,15.73
2017-06-18T04:23:36.058Z,15.81
2017-06-18T04:24:04.202Z,15.7
2017-06-18T04:24:32.169Z,15.72
2017-06-18T04:25:00.191Z,15.84
2017-06-18T04:25:28.323Z,15.81
2017-06-18T04:25:56.436Z,15.76
2017-06-18T04:26:24.475Z,15.81
2017-06-18T04:26:53.142Z,15.75
2017-06-18T04:27:21.282Z,15.8
2017-06-18T04:27:49.418Z,15.87
2017-06-18T04:28:17.476Z,15.84
2017-06-18T04:28:45.597Z,15.81
2017-06-18T04:29:13.656Z,15.85
2017-06-18T04:29:41.709Z,15.88
2017-06-18T04:30:09.874Z,15.84
2017-06-18T04:30:37.960Z,15.84
2017-06-18T04:31:06.102Z,15.85
2017-06-18T04:31:34.151Z,15.85
2017-06-18T04:32:02.292Z,15.84
2017-06-18T04:32:30.341Z,15.88
2017-06-18T04:32:58.401Z,15.85
2017-06-18T04:33:26.524Z,15.83
2017-06-18T04:33:54.579Z,15.81
2017-06-18T04:34:22.711Z,15.85
2017-06-18T04:34:50.863Z,15.9
2017-06-18T04:35:19.008Z,15.96
2017-06-18T04:35:47.135Z,15.99
2017-06-18T04:36:15.280Z,15.91
2017-06-18T04:36:43.882Z,15.91
2017-06-18T04:37:12.357Z,15.96
2017-06-18T04:37:41.124Z,15.9
2017-06-18T04:38:09.477Z,15.98
2017-06-18T04:38:38.017Z,16
2017-06-18T04:39:06.566Z,16
2017-06-18T04:39:35.103Z,16.02
2017-06-18T04:40:03.621Z,16
2017-06-18T04:40:32.141Z,15.99
2017-06-18T04:41:00.745Z,16
2017-06-18T04:41:29.271Z,16.05
2017-06-18T04:41:57.900Z,16.06
2017-06-18T04:42:26.505Z,16.08
2017-06-18T04:42:54.936Z,16.02
2017-06-18T04:43:23.474Z,16.16
2017-06-18T04:43:52.013Z,16.08
2017-06-18T04:44:20.648Z,16.09
2017-06-18T04:44:49.269Z,16.08
2017-06-18T04:45:17.873Z,16.05
2017-06-18T04:45:46.397Z,15.99
2017-06-18T04:46:14.936Z,16
2017-06-18T04:46:43.558Z,16.05
2017-06-18T04:47:12.174Z,15.94
2017-06-18T04:47:40.810Z,16.03
2017-06-18T04:48:09.456Z,15.98
2017-06-18T04:48:38.208Z,16
2017-06-18T04:49:06.941Z,16.02
2017-06-18T04:49:35.546Z,15.99
2017-06-18T04:50:04.144Z,16.03
2017-06-18T04:50:32.669Z,16
2017-06-18T04:51:01.307Z,15.98
2017-06-18T04:51:29.970Z,16.02
2017-06-18T04:51:58.519Z,16
2017-06-18T04:52:27.059Z,16.03
2017-06-18T04:52:55.693Z,16.1
2017-06-18T04:53:24.317Z,16
2017-06-18T04:53:52.935Z,16
2017-06-18T04:54:21.277Z,15.98
2017-06-18T04:54:49.909Z,15.98
2017-06-18T04:55:18.545Z,16
2017-06-18T04:55:47.146Z,16.03
2017-06-18T04:56:15.655Z,16.03
2017-06-18T04:56:44.548Z,15.96
2017-06-18T04:57:13.178Z,15.98
2017-06-18T04:57:41.704Z,15.94
2017-06-18T04:58:10.217Z,15.96
2017-06-18T04:58:38.726Z,15.88
2017-06-18T04:59:07.354Z,15.9
2017-06-18T04:59:35.987Z,15.91
2017-06-18T05:00:04.633Z,15.85
2017-06-18T05:00:33.267Z,15.91
2017-06-18T05:01:01.806Z,15.81
2017-06-18T05:01:30.335Z,15.84
2017-06-18T05:01:58.957Z,15.81
2017-06-18T05:02:27.484Z,15.78
2017-06-18T05:02:56.032Z,15.73
2017-06-18T05:03:24.443Z,15.66
2017-06-18T05:03:52.963Z,15.76
2017-06-18T05:04:21.470Z,15.7
2017-06-18T05:04:50.057Z,15.62
2017-06-18T05:05:18.683Z,15.65
2017-06-18T05:05:47.318Z,15.57
2017-06-18T05:06:15.674Z,15.55
2017-06-18T05:06:44.283Z,15.54
2017-06-18T05:07:12.891Z,15.55
2017-06-18T05:07:41.517Z,15.48
2017-06-18T05:08:09.954Z,15.5
2017-06-18T05:08:38.396Z,15.47
2017-06-18T05:09:07.136Z,15.47
2017-06-18T05:09:35.635Z,15.43
2017-06-18T05:10:04.260Z,15.5
2017-06-18T05:10:47.172Z,15.5
2017-06-18T05:11:15.790Z,15.39
2017-06-18T05:11:44.378Z,15.5
2017-06-18T05:12:12.925Z,15.43
2017-06-18T05:12:41.522Z,15.44
2017-06-18T05:13:10.108Z,15.37
2017-06-18T05:13:38.696Z,15.43
2017-06-18T05:14:07.316Z,15.44
2017-06-18T05:14:35.940Z,15.44
2017-06-18T05:15:04.357Z,15.37
2017-06-18T05:15:32.953Z,15.47
2017-06-18T05:16:01.539Z,15.41
2017-06-18T05:16:30.157Z,15.5
2017-06-18T05:16:58.777Z,15.43
2017-06-18T05:17:27.290Z,15.45
2017-06-18T05:17:55.727Z,15.47
2017-06-18T05:18:24.153Z,15.47
2017-06-18T05:18:52.774Z,15.41
2017-06-18T05:19:21.403Z,15.44
2017-06-18T05:19:50.000Z,15.43
2017-06-18T05:20:18.491Z,15.36
2017-06-18T05:20:46.917Z,15.39
2017-06-18T05:21:15.531Z,15.45
2017-06-18T05:21:43.957Z,15.35
2017-06-18T05:22:12.489Z,15.33
2017-06-18T05:22:41.016Z,15.3
2017-06-18T05:23:09.619Z,15.35
2017-06-18T05:23:38.140Z,15.36
2017-06-18T05:24:06.730Z,15.37
2017-06-18T05:24:35.268Z,15.36
2017-06-18T05:25:03.880Z,15.32
2017-06-18T05:25:32.423Z,15.32
2017-06-18T05:26:00.931Z,15.29
2017-06-18T05:26:29.519Z,15.29
2017-06-18T05:26:58.138Z,15.29
2017-06-18T05:27:26.574Z,15.32
2017-06-18T05:27:55.052Z,15.27
2017-06-18T05:28:23.544Z,15.35
2017-06-18T05:28:52.146Z,15.29
2017-06-18T05:29:20.748Z,15.22
2017-06-18T05:29:49.365Z,15.32
2017-06-18T05:30:17.873Z,15.33
2017-06-18T05:30:46.398Z,15.18
2017-06-18T05:31:15.008Z,15.17
2017-06-18T05:31:43.609Z,15.18
2017-06-18T05:32:12.125Z,15.17
2017-06-18T05:32:40.754Z,15.25
2017-06-18T05:33:09.266Z,15.19
2017-06-18T05:33:37.874Z,15.32
2017-06-18T05:34:06.503Z,15.3
2017-06-18T05:34:35.017Z,15.32
2017-06-18T05:35:03.621Z,15.32
2017-06-18T05:35:32.142Z,15.35
2017-06-18T05:36:00.728Z,15.32
2017-06-18T05:36:29.354Z,15.3
2017-06-18T05:36:57.964Z,15.25
2017-06-18T05:37:26.581Z,15.29
2017-06-18T05:37:55.194Z,15.32
2017-06-18T05:38:23.817Z,15.32
2017-06-18T05:38:52.421Z,15.32
2017-06-18T05:39:21.022Z,15.3
2017-06-18T05:39:49.653Z,15.32
2017-06-18T05:40:18.084Z,15.33
2017-06-18T05:40:46.699Z,15.19
2017-06-18T05:41:15.201Z,15.33
2017-06-18T05:41:43.721Z,15.18
2017-06-18T05:42:12.347Z,15.25
2017-06-18T05:42:40.941Z,15.26
2017-06-18T05:43:09.362Z,15.33
2017-06-18T05:43:37.989Z,15.27
2017-06-18T05:44:06.615Z,15.26
2017-06-18T05:44:35.177Z,15.33
2017-06-18T05:45:03.805Z,15.29
2017-06-18T05:45:32.383Z,15.33
2017-06-18T05:46:00.984Z,15.27
2017-06-18T05:46:29.479Z,15.27
2017-06-18T05:46:58.097Z,15.33
2017-06-18T05:47:26.732Z,15.3
2017-06-18T05:47:55.328Z,15.27
2017-06-18T05:48:23.924Z,15.3
2017-06-18T05:48:52.540Z,15.32
2017-06-18T05:49:21.149Z,15.3
2017-06-18T05:49:49.737Z,15.29
2017-06-18T05:50:18.350Z,15.35
2017-06-18T05:50:46.849Z,15.23
2017-06-18T05:51:15.463Z,15.19
2017-06-18T05:51:44.110Z,15.19
2017-06-18T05:52:12.725Z,15.26
2017-06-18T05:52:41.332Z,15.17
2017-06-18T05:53:09.825Z,15.14
2017-06-18T05:53:38.347Z,15.12
2017-06-18T05:54:06.967Z,15.12
2017-06-18T05:54:35.483Z,15.11
2017-06-18T05:55:04.081Z,15.1
2017-06-18T05:55:32.602Z,15.1
2017-06-18T05:56:01.230Z,15.12
2017-06-18T05:56:29.643Z,15.1
2017-06-18T05:56:58.261Z,15.08
2017-06-18T05:57:26.800Z,15.05
2017-06-18T05:57:55.420Z,15.17
2017-06-18T05:58:24.011Z,15.07
2017-06-18T05:58:52.627Z,15.08
2017-06-18T05:59:21.160Z,15.12
2017-06-18T05:59:49.766Z,15.11
2017-06-18T06:00:18.376Z,15.12
2017-06-18T06:00:46.859Z,14.96
2017-06-18T06:01:15.374Z,15.07
2017-06-18T06:01:43.963Z,15.1
2017-06-18T06:02:12.574Z,15.05
2017-06-18T06:02:40.915Z,15.04
2017-06-18T06:03:09.423Z,15.14
2017-06-18T06:03:38.011Z,15.04
2017-06-18T06:04:06.610Z,15.05
2017-06-18T06:04:35.192Z,15.04
2017-06-18T06:05:03.786Z,15.11
2017-06-18T06:05:32.408Z,15.08
2017-06-18T06:06:01.031Z,15.07
2017-06-18T06:06:29.530Z,15.08
2017-06-18T06:06:58.140Z,15.04